createdAt,value
2023-01-19T00:00:23.545Z,15.25
2023-01-19T00:01:26.268Z,12.65
2023-01-19T00:02:27.775Z,13.77
2023-01-19T00:03:29.288Z,13.88
2023-01-19T00:04:30.839Z,14.93
2023-01-19T00:05:34.192Z,14.25
2023-01-19T00:06:35.707Z,14.15
2023-01-19T00:07:37.176Z,15.68
2023-01-19T00:08:39.512Z,14.85
2023-01-19T00:09:40.966Z,13.73
2023-01-19T00:10:44.446Z,14.45
2023-01-19T00:11:45.907Z,14.15
2023-01-19T00:12:47.451Z,15.93
2023-01-19T00:13:52.039Z,15.02
2023-01-19T00:14:53.596Z,14.68
2023-01-19T00:15:55.225Z,13.30
2023-01-19T00:16:57.543Z,15.70
2023-01-19T00:17:58.971Z,16.10
2023-01-19T00:19:00.376Z,13.85
2023-01-19T00:20:01.923Z,13.82
2023-01-19T00:21:03.374Z,15.65
2023-01-19T00:22:06.004Z,16.80
2023-01-19T00:23:08.574Z,16.00
2023-01-19T00:24:10.519Z,20.75
2023-01-19T00:25:14.816Z,19.23
2023-01-19T00:26:17.164Z,18.10
2023-01-19T00:27:18.695Z,16.63
2023-01-19T00:28:23.349Z,15.15
2023-01-19T00:29:24.825Z,15.40
2023-01-19T00:30:26.603Z,14.32
2023-01-19T00:31:30.042Z,17.73
2023-01-19T00:32:31.514Z,14.90
2023-01-19T00:33:33.037Z,15.48
2023-01-19T00:34:39.561Z,12.82
2023-01-19T00:35:42.687Z,14.93
2023-01-19T00:37:46.162Z,13.65
2023-01-19T00:38:47.639Z,14.52
2023-01-19T00:39:49.096Z,13.55
2023-01-19T00:40:51.035Z,13.80
2023-01-19T00:42:11.262Z,14.43
2023-01-19T00:43:12.690Z,14.95
2023-01-19T00:44:14.130Z,13.20
2023-01-19T00:45:21.236Z,14.63
2023-01-19T00:46:27.369Z,16.58
2023-01-19T00:47:28.869Z,14.60
2023-01-19T00:48:30.746Z,15.00
2023-01-19T00:49:32.281Z,16.98
2023-01-19T00:50:34.459Z,17.58
2023-01-19T00:51:36.282Z,16.02
2023-01-19T00:52:39.206Z,15.45
2023-01-19T00:53:40.615Z,14.88
2023-01-19T00:54:42.044Z,14.82
2023-01-19T00:55:43.519Z,14.38
2023-01-19T00:56:45.621Z,15.15
2023-01-19T00:57:47.403Z,15.88
2023-01-19T00:58:48.816Z,13.38
2023-01-19T00:59:50.296Z,13.57
2023-01-19T01:00:53.847Z,15.20
2023-01-19T01:01:55.807Z,15.30
2023-01-19T01:02:57.734Z,16.38
2023-01-19T01:03:59.880Z,15.88
2023-01-19T01:05:02.883Z,15.73
2023-01-19T01:07:14.363Z,16.10
2023-01-19T01:08:15.875Z,15.48
2023-01-19T01:09:19.598Z,16.25
2023-01-19T01:10:24.939Z,15.77
2023-01-19T01:11:26.396Z,14.55
2023-01-19T01:12:28.614Z,16.27
2023-01-19T01:13:30.442Z,15.15
2023-01-19T01:14:32.085Z,17.00
2023-01-19T01:15:34.392Z,14.02
2023-01-19T01:16:36.173Z,14.43
2023-01-19T01:17:38.093Z,15.20
2023-01-19T01:18:39.532Z,13.95
2023-01-19T01:19:41.650Z,17.45
2023-01-19T01:20:43.136Z,14.25
2023-01-19T01:21:44.713Z,14.55
2023-01-19T01:22:48.384Z,15.48
2023-01-19T01:23:49.811Z,14.73
2023-01-19T01:24:51.276Z,13.90
2023-01-19T01:25:52.738Z,14.30
2023-01-19T01:26:54.455Z,14.60
2023-01-19T01:27:55.927Z,12.38
2023-01-19T01:28:57.411Z,15.07
2023-01-19T01:29:58.887Z,16.48
2023-01-19T01:31:00.451Z,16.30
2023-01-19T01:32:02.502Z,13.77
2023-01-19T01:33:04.067Z,15.50
2023-01-19T01:34:05.623Z,15.68
2023-01-19T01:35:09.048Z,14.30
2023-01-19T01:36:11.915Z,15.52
2023-01-19T01:37:13.454Z,16.23
2023-01-19T01:38:15.446Z,14.13
2023-01-19T01:39:16.926Z,14.93
2023-01-19T01:40:19.338Z,15.18
2023-01-19T01:41:21.956Z,14.60
2023-01-19T01:42:29.416Z,15.15
2023-01-19T01:44:01.764Z,15.32
2023-01-19T01:45:07.590Z,16.85
2023-01-19T01:46:09.332Z,17.52
2023-01-19T01:47:11.008Z,14.77
2023-01-19T01:48:17.623Z,14.65
2023-01-19T01:49:19.132Z,14.88
2023-01-19T01:50:23.455Z,16.55
2023-01-19T01:51:28.387Z,13.27
2023-01-19T01:52:33.122Z,16.08
2023-01-19T01:53:37.295Z,14.73
2023-01-19T01:54:39.083Z,14.38
2023-01-19T01:55:46.696Z,14.50
2023-01-19T01:56:51.737Z,16.30
2023-01-19T01:57:58.200Z,15.60
2023-01-19T01:59:03.632Z,16.17
2023-01-19T02:00:06.649Z,15.05
2023-01-19T02:01:31.677Z,15.80
2023-01-19T02:02:51.022Z,17.02
2023-01-19T02:03:53.627Z,15.05
2023-01-19T02:05:06.302Z,16.17
2023-01-19T02:06:08.636Z,18.88
2023-01-19T02:07:33.273Z,15.40
2023-01-19T02:09:00.663Z,17.00
2023-01-19T02:10:21.014Z,17.67
2023-01-19T02:11:41.763Z,18.15
2023-01-19T02:13:02.410Z,16.35
2023-01-19T02:15:15.140Z,16.02
2023-01-19T02:16:17.700Z,15.82
2023-01-19T02:17:19.314Z,17.02
2023-01-19T02:18:23.260Z,18.02
2023-01-19T02:19:34.959Z,15.25
2023-01-19T02:20:38.161Z,18.08
2023-01-19T02:21:54.345Z,13.63
2023-01-19T02:23:01.992Z,13.63
2023-01-19T02:24:04.362Z,17.63
2023-01-19T02:25:07.409Z,17.00
2023-01-19T02:26:11.417Z,18.77
2023-01-19T02:27:13.510Z,15.55
2023-01-19T02:28:15.469Z,15.43
2023-01-19T02:29:20.337Z,16.02
2023-01-19T02:30:22.016Z,16.35
2023-01-19T02:31:24.341Z,15.65
2023-01-19T02:32:26.677Z,15.20
2023-01-19T02:33:28.369Z,15.20
2023-01-19T02:34:30.250Z,14.60
2023-01-19T02:35:32.494Z,14.75
2023-01-19T02:36:53.415Z,17.23
2023-01-19T02:37:55.422Z,16.73
2023-01-19T02:39:00.175Z,14.73
2023-01-19T02:40:04.348Z,16.35
2023-01-19T02:41:08.384Z,13.98
2023-01-19T02:42:14.572Z,18.17
2023-01-19T02:43:19.086Z,14.75
2023-01-19T02:44:23.563Z,15.73
2023-01-19T02:45:25.183Z,16.00
2023-01-19T02:46:26.917Z,16.17
2023-01-19T02:47:38.847Z,15.57
2023-01-19T02:48:40.412Z,16.20
2023-01-19T02:49:42.436Z,17.92
2023-01-19T02:50:49.189Z,17.65
2023-01-19T02:51:50.660Z,15.77
2023-01-19T02:52:55.556Z,14.57
2023-01-19T02:54:22.253Z,14.43
2023-01-19T02:55:29.986Z,16.77
2023-01-19T02:56:37.268Z,13.85
2023-01-19T02:58:16.044Z,13.80
2023-01-19T02:59:48.529Z,14.95
2023-01-19T03:01:12.590Z,14.85
2023-01-19T03:02:40.811Z,16.48
2023-01-19T03:04:03.286Z,14.77
2023-01-19T03:05:33.502Z,15.82
2023-01-19T03:06:47.034Z,14.52
2023-01-19T03:08:22.093Z,18.25
2023-01-19T03:09:46.503Z,14.18
2023-01-19T03:11:01.429Z,15.50
2023-01-19T03:12:25.008Z,16.50
2023-01-19T03:13:48.932Z,15.68
2023-01-19T03:14:54.134Z,15.43
2023-01-19T03:16:12.066Z,15.88
2023-01-19T03:17:17.780Z,15.25
2023-01-19T03:18:23.516Z,16.67
2023-01-19T03:19:34.903Z,15.05
2023-01-19T03:20:37.865Z,14.70
2023-01-19T03:21:45.565Z,16.15
2023-01-19T03:22:51.820Z,15.30
2023-01-19T03:23:56.901Z,15.85
2023-01-19T03:25:01.615Z,15.80
2023-01-19T03:26:06.090Z,18.98
2023-01-19T03:27:16.264Z,18.98
2023-01-19T03:28:22.881Z,19.73
2023-01-19T03:29:30.042Z,15.68
2023-01-19T03:30:42.543Z,18.35
2023-01-19T03:31:47.850Z,17.27
2023-01-19T03:32:57.300Z,17.25
2023-01-19T03:34:06.682Z,16.42
2023-01-19T03:35:12.715Z,19.48
2023-01-19T03:36:33.886Z,18.52
2023-01-19T03:37:41.338Z,18.45
2023-01-19T03:38:46.089Z,17.92
2023-01-19T03:39:47.590Z,18.75
2023-01-19T03:40:50.016Z,17.92
2023-01-19T03:41:58.585Z,24.25
2023-01-19T03:43:03.076Z,17.95
2023-01-19T03:44:07.644Z,16.58
2023-01-19T03:45:09.938Z,17.45
2023-01-19T03:46:12.581Z,19.33
2023-01-19T03:47:15.033Z,18.20
2023-01-19T03:48:17.049Z,17.30
2023-01-19T03:49:19.020Z,18.17
2023-01-19T03:50:30.763Z,19.23
2023-01-19T03:51:36.376Z,17.27
2023-01-19T03:52:37.860Z,19.33
2023-01-19T03:53:39.302Z,18.15
2023-01-19T03:54:41.133Z,18.17
2023-01-19T03:55:45.646Z,19.20
2023-01-19T03:56:47.073Z,17.48
2023-01-19T03:57:48.819Z,18.88
2023-01-19T03:58:50.965Z,18.45
2023-01-19T03:59:53.380Z,17.08
2023-01-19T04:00:54.978Z,18.17
2023-01-19T04:01:56.486Z,16.38
2023-01-19T04:02:58.989Z,16.08
2023-01-19T04:04:01.020Z,19.20
2023-01-19T04:05:02.480Z,17.63
2023-01-19T04:06:04.074Z,18.02
2023-01-19T04:07:05.619Z,16.23
2023-01-19T04:08:08.231Z,17.30
2023-01-19T04:09:10.318Z,17.13
2023-01-19T04:10:12.817Z,18.83
2023-01-19T04:11:14.425Z,18.35
2023-01-19T04:12:16.160Z,17.95
2023-01-19T04:13:17.611Z,19.20
2023-01-19T04:14:19.121Z,19.52
2023-01-19T04:15:20.524Z,18.08
2023-01-19T04:16:23.137Z,18.63
2023-01-19T04:17:24.562Z,18.65
2023-01-19T04:18:26.484Z,17.20
2023-01-19T04:19:27.923Z,20.77
2023-01-19T04:20:29.496Z,20.50
2023-01-19T04:21:30.936Z,19.85
2023-01-19T04:22:32.656Z,19.35
2023-01-19T04:23:34.157Z,20.95
2023-01-19T04:24:35.585Z,18.98
2023-01-19T04:25:38.886Z,20.20
2023-01-19T04:26:40.431Z,20.67
2023-01-19T04:27:41.857Z,19.13
2023-01-19T04:28:43.350Z,20.10
2023-01-19T04:29:44.813Z,17.92
2023-01-19T04:30:50.611Z,20.23
2023-01-19T04:31:52.064Z,17.98
2023-01-19T04:32:55.756Z,19.65
2023-01-19T04:33:57.335Z,17.73
2023-01-19T04:34:59.362Z,18.25
2023-01-19T04:36:01.701Z,18.58
2023-01-19T04:37:03.127Z,19.77
2023-01-19T04:38:04.867Z,18.00
2023-01-19T04:39:08.415Z,18.05
2023-01-19T04:40:10.459Z,19.67
2023-01-19T04:41:11.956Z,20.25
2023-01-19T04:42:13.812Z,18.13
2023-01-19T04:43:15.665Z,17.13
2023-01-19T04:44:17.668Z,18.35
2023-01-19T04:45:19.129Z,18.10
2023-01-19T04:46:20.580Z,19.17
2023-01-19T04:47:22.047Z,17.55
2023-01-19T04:48:24.236Z,17.80
2023-01-19T04:49:25.765Z,17.17
2023-01-19T04:50:27.205Z,16.90
2023-01-19T04:51:28.845Z,16.65
2023-01-19T04:52:37.069Z,17.45
2023-01-19T04:53:38.959Z,17.73
2023-01-19T04:54:40.414Z,17.60
2023-01-19T04:55:42.201Z,18.30
2023-01-19T04:56:43.630Z,16.20
2023-01-19T04:57:45.922Z,17.85
2023-01-19T04:58:47.708Z,17.15
2023-01-19T04:59:49.114Z,20.02
2023-01-19T05:00:52.149Z,17.05
2023-01-19T05:02:55.077Z,17.67
2023-01-19T05:03:59.651Z,20.20
2023-01-19T05:05:01.218Z,16.65
2023-01-19T05:06:02.735Z,19.00
2023-01-19T05:07:04.159Z,17.50
2023-01-19T05:08:05.869Z,18.08
2023-01-19T05:09:09.031Z,16.65
2023-01-19T05:10:11.889Z,16.65
2023-01-19T05:11:13.324Z,18.35
2023-01-19T05:12:14.866Z,17.85
2023-01-19T05:13:16.388Z,17.83
2023-01-19T05:14:17.847Z,16.35
2023-01-19T05:15:19.341Z,16.63
2023-01-19T05:16:20.962Z,17.63
2023-01-19T05:17:22.581Z,17.65
2023-01-19T05:18:24.332Z,16.63
2023-01-19T05:19:25.808Z,16.48
2023-01-19T05:20:27.317Z,17.40
2023-01-19T05:21:28.789Z,16.83
2023-01-19T05:22:30.327Z,17.40
2023-01-19T05:23:33.025Z,17.52
2023-01-19T05:24:34.502Z,17.67
2023-01-19T05:25:35.944Z,17.70
2023-01-19T05:26:37.645Z,17.35
2023-01-19T05:27:39.232Z,18.35
2023-01-19T05:28:40.758Z,17.00
2023-01-19T05:29:42.170Z,18.83
2023-01-19T05:30:43.791Z,17.10
2023-01-19T05:31:45.345Z,19.50
2023-01-19T05:32:46.849Z,18.67
2023-01-19T05:33:49.348Z,20.17
2023-01-19T05:34:50.851Z,19.30
2023-01-19T05:35:53.855Z,18.83
2023-01-19T05:36:55.310Z,21.25
2023-01-19T05:37:56.810Z,17.20
2023-01-19T05:38:58.349Z,17.98
2023-01-19T05:39:59.827Z,18.75
2023-01-19T05:41:01.273Z,18.10
2023-01-19T05:42:02.750Z,20.52
2023-01-19T05:43:05.315Z,19.88
2023-01-19T05:44:07.001Z,21.13
2023-01-19T05:45:09.097Z,18.55
2023-01-19T05:46:10.587Z,20.10
2023-01-19T05:47:12.028Z,19.02
2023-01-19T05:48:13.632Z,18.48
2023-01-19T05:49:15.418Z,18.63
2023-01-19T05:50:16.920Z,16.65
2023-01-19T05:51:18.629Z,18.08
2023-01-19T05:52:20.225Z,17.42
2023-01-19T05:53:21.666Z,19.17
2023-01-19T05:54:24.057Z,17.15
2023-01-19T05:55:26.119Z,18.55
2023-01-19T05:56:27.860Z,19.45
2023-01-19T05:57:29.278Z,18.35
2023-01-19T05:58:31.170Z,18.40
2023-01-19T05:59:32.912Z,19.60
2023-01-19T06:00:34.353Z,18.10
2023-01-19T06:01:38.957Z,20.25
2023-01-19T06:02:41.379Z,19.23
2023-01-19T06:03:42.798Z,21.23
2023-01-19T06:04:45.149Z,18.25
2023-01-19T06:05:46.659Z,19.88
2023-01-19T06:06:48.872Z,20.38
2023-01-19T06:07:50.291Z,19.77
2023-01-19T06:08:51.708Z,20.10
2023-01-19T06:09:53.475Z,17.73
2023-01-19T06:10:54.963Z,19.17
2023-01-19T06:11:57.757Z,17.58
2023-01-19T06:12:59.510Z,19.60
2023-01-19T06:14:01.967Z,17.02
2023-01-19T06:15:03.624Z,20.15
2023-01-19T06:16:06.032Z,18.77
2023-01-19T06:17:07.733Z,21.65
2023-01-19T06:18:09.501Z,17.90
2023-01-19T06:19:11.375Z,21.77
2023-01-19T06:20:14.133Z,21.10
2023-01-19T06:21:15.566Z,19.60
2023-01-19T06:22:17.112Z,17.42
2023-01-19T06:23:18.618Z,18.60
2023-01-19T06:24:20.452Z,18.45
2023-01-19T06:25:21.954Z,18.25
2023-01-19T06:26:23.421Z,20.83
2023-01-19T06:27:24.824Z,17.88
2023-01-19T06:28:26.583Z,17.98
2023-01-19T06:29:28.763Z,20.00
2023-01-19T06:30:30.985Z,35.50
2023-01-19T06:31:32.456Z,28.02
2023-01-19T06:32:34.006Z,26.40
2023-01-19T06:33:35.503Z,23.88
2023-01-19T06:34:36.953Z,20.90
2023-01-19T06:35:38.436Z,18.77
2023-01-19T06:36:39.917Z,18.30
2023-01-19T06:37:41.781Z,18.17
2023-01-19T06:38:43.297Z,18.90
2023-01-19T06:39:45.756Z,19.70
2023-01-19T06:40:54.389Z,19.63
2023-01-19T06:41:55.809Z,17.92
2023-01-19T06:42:57.401Z,17.23
2023-01-19T06:43:59.208Z,19.98
2023-01-19T06:45:00.771Z,17.35
2023-01-19T06:46:02.605Z,18.25
2023-01-19T06:47:14.941Z,19.55
2023-01-19T06:48:17.412Z,18.52
2023-01-19T06:49:18.971Z,16.67
2023-01-19T06:50:20.752Z,16.15
2023-01-19T06:51:22.746Z,16.88
2023-01-19T06:52:24.249Z,17.38
2023-01-19T06:53:28.098Z,18.70
2023-01-19T06:54:29.999Z,15.93
2023-01-19T06:55:31.431Z,16.88
2023-01-19T06:56:32.963Z,16.90
2023-01-19T06:57:34.421Z,19.23
2023-01-19T06:58:35.957Z,18.83
2023-01-19T06:59:41.126Z,19.35
2023-01-19T07:00:43.170Z,16.42
2023-01-19T07:01:44.936Z,18.50
2023-01-19T07:02:46.596Z,17.95
2023-01-19T07:03:48.180Z,17.35
2023-01-19T07:04:49.649Z,17.70
2023-01-19T07:05:52.813Z,18.27
2023-01-19T07:06:54.367Z,16.10
2023-01-19T07:07:56.828Z,19.52
2023-01-19T07:09:00.251Z,18.33
2023-01-19T07:10:01.832Z,16.45
2023-01-19T07:11:25.306Z,19.20
2023-01-19T07:12:30.545Z,19.45
2023-01-19T07:13:36.342Z,18.63
2023-01-19T07:14:38.569Z,17.60
2023-01-19T07:15:39.995Z,16.88
2023-01-19T07:16:41.683Z,17.67
2023-01-19T07:17:44.062Z,16.75
2023-01-19T07:18:48.377Z,18.73
2023-01-19T07:19:49.908Z,18.25
2023-01-19T07:20:51.968Z,18.20
2023-01-19T07:21:53.438Z,17.25
2023-01-19T07:22:58.520Z,17.95
2023-01-19T07:24:00.340Z,18.58
2023-01-19T07:25:02.143Z,18.13
2023-01-19T07:26:03.676Z,19.15
2023-01-19T07:27:05.481Z,17.20
2023-01-19T07:28:07.375Z,16.80
2023-01-19T07:29:08.920Z,19.02
2023-01-19T07:30:11.266Z,17.90
2023-01-19T07:31:12.906Z,18.52
2023-01-19T07:32:15.090Z,17.48
2023-01-19T07:33:16.527Z,17.25
2023-01-19T07:34:18.077Z,18.27
2023-01-19T07:35:19.528Z,18.95
2023-01-19T07:36:20.959Z,18.10
2023-01-19T07:37:22.708Z,17.80
2023-01-19T07:38:24.263Z,18.63
2023-01-19T07:39:25.690Z,18.95
2023-01-19T07:40:27.639Z,17.77
2023-01-19T07:41:29.049Z,22.35
2023-01-19T07:42:30.544Z,17.05
2023-01-19T07:43:32.988Z,18.05
2023-01-19T07:44:34.436Z,17.77
2023-01-19T07:45:36.468Z,15.75
2023-01-19T07:46:38.023Z,16.45
2023-01-19T07:47:39.486Z,16.23
2023-01-19T07:48:41.004Z,17.48
2023-01-19T07:49:42.551Z,18.83
2023-01-19T07:50:44.808Z,16.63
2023-01-19T07:51:46.460Z,18.30
2023-01-19T07:52:50.685Z,15.27
2023-01-19T07:53:52.155Z,20.48
2023-01-19T07:54:53.629Z,15.48
2023-01-19T07:55:56.596Z,18.00
2023-01-19T07:56:58.111Z,15.27
2023-01-19T07:57:59.553Z,17.55
2023-01-19T07:59:01.126Z,17.30
2023-01-19T08:00:03.873Z,16.92
2023-01-19T08:01:11.141Z,16.90
2023-01-19T08:02:12.779Z,16.92
2023-01-19T08:03:14.304Z,18.00
2023-01-19T08:04:15.757Z,17.52
2023-01-19T08:05:18.193Z,16.42
2023-01-19T08:06:23.482Z,16.35
2023-01-19T08:07:24.988Z,18.95
2023-01-19T08:08:26.484Z,17.65
2023-01-19T08:09:27.928Z,17.77
2023-01-19T08:10:29.395Z,16.85
2023-01-19T08:11:31.477Z,16.60
2023-01-19T08:12:33.051Z,17.77
2023-01-19T08:13:34.671Z,20.48
2023-01-19T08:14:36.071Z,18.60
2023-01-19T08:15:37.954Z,18.13
2023-01-19T08:16:39.606Z,16.15
2023-01-19T08:17:41.041Z,21.83
2023-01-19T08:18:42.701Z,18.02
2023-01-19T08:19:44.668Z,17.45
2023-01-19T08:20:46.798Z,17.48
2023-01-19T08:21:48.215Z,20.55
2023-01-19T08:22:50.023Z,18.90
2023-01-19T08:23:55.032Z,19.25
2023-01-19T08:24:56.601Z,18.70
2023-01-19T08:25:58.138Z,17.38
2023-01-19T08:27:01.235Z,18.38
2023-01-19T08:29:05.916Z,18.80
2023-01-19T08:30:08.221Z,19.05
2023-01-19T08:31:19.722Z,19.20
2023-01-19T08:32:23.282Z,17.88
2023-01-19T08:33:25.475Z,19.10
2023-01-19T08:34:27.186Z,18.02
2023-01-19T08:35:28.664Z,20.73
2023-01-19T08:36:30.364Z,19.67
2023-01-19T08:37:34.091Z,18.50
2023-01-19T08:38:35.771Z,18.77
2023-01-19T08:39:37.159Z,20.40
2023-01-19T08:40:40.947Z,20.20
2023-01-19T08:41:42.410Z,20.70
2023-01-19T08:42:43.867Z,20.65
2023-01-19T08:43:45.690Z,20.10
2023-01-19T08:44:57.632Z,18.90
2023-01-19T08:45:59.459Z,20.42
2023-01-19T08:47:01.137Z,20.27
2023-01-19T08:48:02.974Z,20.67
2023-01-19T08:49:04.443Z,15.98
2023-01-19T08:50:06.428Z,19.50
2023-01-19T08:51:08.132Z,18.90
2023-01-19T08:52:12.365Z,20.00
2023-01-19T08:53:14.821Z,17.63
2023-01-19T08:54:18.551Z,19.42
2023-01-19T08:55:20.236Z,19.23
2023-01-19T08:56:21.790Z,20.20
2023-01-19T08:57:23.251Z,18.58
2023-01-19T08:58:24.731Z,18.42
2023-01-19T08:59:26.344Z,17.70
2023-01-19T09:00:27.949Z,17.05
2023-01-19T09:01:30.025Z,19.08
2023-01-19T09:02:31.705Z,18.23
2023-01-19T09:03:33.326Z,18.85
2023-01-19T09:04:38.129Z,19.83
2023-01-19T09:05:40.883Z,20.98
2023-01-19T09:06:42.417Z,18.42
2023-01-19T09:07:45.709Z,18.58
2023-01-19T09:08:50.908Z,20.25
2023-01-19T09:09:52.372Z,21.67
2023-01-19T09:10:53.876Z,19.90
2023-01-19T09:11:55.854Z,18.63
2023-01-19T09:12:57.913Z,21.92
2023-01-19T09:13:59.384Z,16.00
2023-01-19T09:15:01.045Z,42.10
2023-01-19T09:16:03.840Z,52.63
2023-01-19T09:17:06.530Z,47.40
2023-01-19T09:18:14.091Z,68.97
2023-01-19T09:19:23.020Z,65.53
2023-01-19T09:20:28.508Z,29.70
2023-01-19T09:21:36.570Z,23.30
2023-01-19T09:22:39.645Z,20.55
2023-01-19T09:24:42.477Z,15.85
2023-01-19T09:25:46.275Z,19.42
2023-01-19T09:26:48.304Z,17.17
2023-01-19T09:27:49.948Z,16.55
2023-01-19T09:28:51.530Z,14.52
2023-01-19T09:29:54.100Z,14.85
2023-01-19T09:30:56.095Z,14.27
2023-01-19T09:31:57.738Z,14.05
2023-01-19T09:33:06.380Z,14.65
2023-01-19T09:34:07.885Z,11.48
2023-01-19T09:35:09.739Z,15.02
2023-01-19T09:36:11.234Z,13.13
2023-01-19T09:37:13.418Z,11.18
2023-01-19T09:38:16.829Z,13.35
2023-01-19T09:39:18.427Z,12.63
2023-01-19T09:40:20.750Z,14.10
2023-01-19T09:41:22.706Z,13.82
2023-01-19T09:42:42.749Z,12.80
2023-01-19T09:43:48.834Z,12.65
2023-01-19T09:44:51.096Z,12.88
2023-01-19T09:45:57.614Z,13.02
2023-01-19T09:47:01.923Z,14.23
2023-01-19T09:48:22.819Z,16.00
2023-01-19T09:49:33.028Z,14.60
2023-01-19T09:50:39.832Z,14.88
2023-01-19T09:51:46.521Z,14.60
2023-01-19T09:52:57.192Z,13.45
2023-01-19T09:54:20.776Z,12.93
2023-01-19T09:55:27.041Z,20.48
2023-01-19T09:56:30.158Z,16.27
2023-01-19T09:57:33.598Z,17.90
2023-01-19T09:58:35.146Z,17.73
2023-01-19T09:59:38.702Z,15.50
2023-01-19T10:00:43.002Z,14.10
2023-01-19T10:02:07.926Z,13.43
2023-01-19T10:03:16.582Z,14.45
2023-01-19T10:04:27.065Z,13.55
2023-01-19T10:05:41.758Z,14.68
2023-01-19T10:06:43.481Z,15.02
2023-01-19T10:08:09.085Z,13.43
2023-01-19T10:09:32.042Z,15.10
2023-01-19T10:10:35.365Z,12.63
2023-01-19T10:11:52.653Z,13.48
2023-01-19T10:13:25.999Z,14.70
2023-01-19T10:14:42.959Z,17.00
2023-01-19T10:16:04.728Z,13.10
2023-01-19T10:17:12.749Z,13.98
2023-01-19T10:18:23.062Z,13.95
2023-01-19T10:19:30.930Z,12.68
2023-01-19T10:20:40.022Z,13.15
2023-01-19T10:21:44.905Z,13.32
2023-01-19T10:22:51.077Z,14.00
2023-01-19T10:23:57.499Z,12.63
2023-01-19T10:25:01.615Z,13.77
2023-01-19T10:26:15.439Z,13.43
2023-01-19T10:27:20.821Z,13.95
2023-01-19T10:28:25.802Z,14.73
2023-01-19T10:29:38.181Z,12.80
2023-01-19T10:30:42.887Z,12.77
2023-01-19T10:31:46.339Z,12.77
2023-01-19T10:32:48.473Z,12.88
2023-01-19T10:33:51.150Z,13.20
2023-01-19T10:34:53.945Z,20.30
2023-01-19T10:35:55.829Z,12.82
2023-01-19T10:37:04.660Z,13.93
2023-01-19T10:38:06.468Z,13.70
2023-01-19T10:39:11.548Z,11.65
2023-01-19T10:40:13.109Z,12.88
2023-01-19T10:41:19.573Z,12.98
2023-01-19T10:42:21.455Z,14.68
2023-01-19T10:43:36.820Z,14.25
2023-01-19T10:45:40.111Z,12.73
2023-01-19T10:46:47.136Z,12.88
2023-01-19T10:47:50.089Z,12.90
2023-01-19T10:48:53.638Z,12.57
2023-01-19T10:49:55.313Z,12.77
2023-01-19T10:51:03.003Z,13.18
2023-01-19T10:52:19.268Z,14.57
2023-01-19T10:53:22.799Z,13.35
2023-01-19T10:54:26.490Z,13.70
2023-01-19T10:55:29.986Z,12.30
2023-01-19T10:56:35.482Z,12.00
2023-01-19T10:57:43.391Z,12.15
2023-01-19T10:58:45.076Z,11.35
2023-01-19T10:59:50.782Z,10.77
2023-01-19T11:00:52.593Z,11.63
2023-01-19T11:02:30.670Z,10.07
2023-01-19T11:03:32.666Z,11.35
2023-01-19T11:04:34.315Z,11.90
2023-01-19T11:05:35.896Z,11.52
2023-01-19T11:06:37.401Z,13.02
2023-01-19T11:07:38.955Z,9.57
2023-01-19T11:08:40.805Z,11.35
2023-01-19T11:09:42.381Z,10.80
2023-01-19T11:10:54.029Z,12.85
2023-01-19T11:11:55.843Z,10.38
2023-01-19T11:13:02.759Z,8.88
2023-01-19T11:14:12.843Z,9.25
2023-01-19T11:15:20.988Z,9.48
2023-01-19T11:16:29.064Z,10.43
2023-01-19T11:17:30.588Z,10.35
2023-01-19T11:18:35.754Z,9.70
2023-01-19T11:19:37.343Z,9.52
2023-01-19T11:20:49.903Z,8.90
2023-01-19T11:21:52.084Z,8.88
2023-01-19T11:23:08.258Z,9.75
2023-01-19T11:24:13.264Z,9.57
2023-01-19T11:25:28.304Z,10.23
2023-01-19T11:26:40.737Z,10.85
2023-01-19T11:27:51.275Z,10.10
2023-01-19T11:28:55.934Z,10.60
2023-01-19T11:30:01.221Z,9.57
2023-01-19T11:31:20.603Z,9.05
2023-01-19T11:32:26.746Z,8.90
2023-01-19T11:33:36.050Z,9.27
2023-01-19T11:34:39.362Z,8.88
2023-01-19T11:35:41.648Z,9.63
2023-01-19T11:36:55.988Z,9.07
2023-01-19T11:38:23.151Z,8.57
2023-01-19T11:39:28.167Z,8.13
2023-01-19T11:40:29.671Z,12.18
2023-01-19T11:41:35.903Z,9.32
2023-01-19T11:42:37.562Z,8.82
2023-01-19T11:43:48.668Z,9.80
2023-01-19T11:45:14.014Z,10.15
2023-01-19T11:46:17.585Z,8.73
2023-01-19T11:47:27.339Z,8.90
2023-01-19T11:48:56.674Z,10.93
2023-01-19T11:50:20.510Z,10.80
2023-01-19T11:51:23.888Z,8.75
2023-01-19T11:52:37.958Z,9.75
2023-01-19T11:53:40.239Z,7.47
2023-01-19T11:54:47.711Z,9.10
2023-01-19T11:56:10.311Z,8.25
2023-01-19T11:57:15.101Z,9.73
2023-01-19T11:58:18.784Z,7.53
2023-01-19T11:59:23.129Z,8.15
2023-01-19T12:00:29.335Z,9.02
2023-01-19T12:01:34.140Z,9.23
2023-01-19T12:02:45.910Z,8.30
2023-01-19T12:04:13.153Z,8.77
2023-01-19T12:05:18.223Z,8.70
2023-01-19T12:06:27.102Z,6.30
2023-01-19T12:07:32.853Z,7.47
2023-01-19T12:08:41.121Z,7.72
2023-01-19T12:09:48.965Z,9.90
2023-01-19T12:10:52.998Z,8.73
2023-01-19T12:12:03.964Z,8.07
2023-01-19T12:13:05.786Z,9.25
2023-01-19T12:14:19.387Z,7.68
2023-01-19T12:15:53.335Z,7.78
2023-01-19T12:16:59.086Z,8.45
2023-01-19T12:18:03.132Z,8.07
2023-01-19T12:19:15.824Z,6.72
2023-01-19T12:20:26.519Z,8.57
2023-01-19T12:21:28.081Z,7.80
2023-01-19T12:22:35.360Z,7.75
2023-01-19T12:23:58.472Z,7.00
2023-01-19T12:25:12.167Z,7.90
2023-01-19T12:26:16.548Z,9.20
2023-01-19T12:27:42.595Z,7.38
2023-01-19T12:28:49.549Z,7.97
2023-01-19T12:29:53.874Z,8.25
2023-01-19T12:30:56.126Z,8.95
2023-01-19T12:32:12.956Z,8.70
2023-01-19T12:33:28.372Z,8.13
2023-01-19T12:34:44.164Z,7.38
2023-01-19T12:36:03.886Z,7.93
2023-01-19T12:37:07.766Z,7.03
2023-01-19T12:38:40.761Z,8.48
2023-01-19T12:39:49.033Z,9.10
2023-01-19T12:40:52.460Z,8.45
2023-01-19T12:42:16.936Z,8.23
2023-01-19T12:43:22.136Z,7.60
2023-01-19T12:44:28.049Z,8.57
2023-01-19T12:45:37.924Z,10.00
2023-01-19T12:47:06.248Z,8.00
2023-01-19T12:48:25.347Z,9.27
2023-01-19T12:49:28.892Z,8.30
2023-01-19T12:50:40.208Z,8.13
2023-01-19T12:51:41.872Z,8.55
2023-01-19T12:52:51.823Z,7.22
2023-01-19T12:53:57.017Z,7.85
2023-01-19T12:55:02.713Z,7.55
2023-01-19T12:56:10.070Z,7.75
2023-01-19T12:57:33.881Z,9.43
2023-01-19T12:58:35.358Z,7.22
2023-01-19T12:59:37.658Z,8.13
2023-01-19T13:00:42.725Z,6.75
2023-01-19T13:01:44.277Z,8.05
2023-01-19T13:02:47.751Z,9.10
2023-01-19T13:04:09.317Z,6.97
2023-01-19T13:06:16.566Z,6.95
2023-01-19T13:07:19.228Z,7.38
2023-01-19T13:08:30.940Z,6.82
2023-01-19T13:09:33.979Z,7.85
2023-01-19T13:12:13.953Z,7.00
2023-01-19T13:13:33.068Z,7.47
2023-01-19T13:14:36.623Z,7.78
2023-01-19T13:15:39.264Z,7.97
2023-01-19T13:16:40.685Z,7.82
2023-01-19T13:17:53.399Z,6.90
2023-01-19T13:18:58.973Z,8.73
2023-01-19T13:20:18.828Z,7.43
2023-01-19T13:21:32.515Z,8.68
2023-01-19T13:22:50.890Z,7.00
2023-01-19T13:23:55.755Z,7.00
2023-01-19T13:25:21.819Z,7.32
2023-01-19T13:26:27.256Z,7.63
2023-01-19T13:27:28.748Z,7.45
2023-01-19T13:28:35.800Z,7.35
2023-01-19T13:29:41.192Z,7.68
2023-01-19T13:31:02.712Z,7.72
2023-01-19T13:32:15.901Z,6.32
2023-01-19T13:33:22.802Z,7.15
2023-01-19T13:34:27.846Z,7.32
2023-01-19T13:35:29.431Z,7.55
2023-01-19T13:36:35.299Z,8.00
2023-01-19T13:37:43.073Z,7.18
2023-01-19T13:38:44.787Z,6.93
2023-01-19T13:39:50.167Z,6.25
2023-01-19T13:40:53.803Z,6.95
2023-01-19T13:42:00.539Z,7.13
2023-01-19T13:43:02.891Z,7.80
2023-01-19T13:44:27.673Z,6.82
2023-01-19T13:45:38.092Z,7.15
2023-01-19T13:46:40.686Z,7.13
2023-01-19T13:47:45.691Z,9.65
2023-01-19T13:49:04.506Z,6.15
2023-01-19T13:50:06.621Z,8.82
2023-01-19T13:51:17.845Z,7.13
2023-01-19T13:52:25.213Z,8.30
2023-01-19T13:53:27.017Z,7.18
2023-01-19T13:54:28.823Z,8.30
2023-01-19T13:55:31.167Z,7.50
2023-01-19T13:56:32.701Z,7.22
2023-01-19T13:57:40.435Z,7.45
2023-01-19T13:58:42.108Z,7.35
2023-01-19T13:59:43.551Z,8.15
2023-01-19T14:00:45.650Z,8.50
2023-01-19T14:01:47.783Z,8.02
2023-01-19T14:03:16.399Z,7.88
2023-01-19T14:04:31.766Z,9.30
2023-01-19T14:06:46.267Z,8.70
2023-01-19T14:07:48.867Z,8.65
2023-01-19T14:09:07.000Z,8.93
2023-01-19T14:10:14.392Z,9.55
2023-01-19T14:11:15.875Z,8.88
2023-01-19T14:12:18.525Z,10.25
2023-01-19T14:13:26.310Z,10.48
2023-01-19T14:14:28.338Z,7.78
2023-01-19T14:15:32.434Z,11.73
2023-01-19T14:16:33.939Z,9.15